createdAt,value
2022-08-05T00:01:27.841Z,25.30
2022-08-05T00:03:57.206Z,25.40
2022-08-05T00:06:32.449Z,25.40
2022-08-05T00:09:00.455Z,25.40
2022-08-05T00:11:34.507Z,25.50
2022-08-05T00:14:11.998Z,25.40
2022-08-05T00:16:52.077Z,25.40
2022-08-05T00:19:24.898Z,25.40
2022-08-05T00:21:59.671Z,25.30
2022-08-05T00:24:31.056Z,25.30
2022-08-05T00:27:04.455Z,25.10
2022-08-05T00:29:38.058Z,25.00
2022-08-05T00:32:12.651Z,24.90
2022-08-05T00:35:05.160Z,24.90
2022-08-05T00:37:50.891Z,24.80
2022-08-05T00:40:28.179Z,25.00
2022-08-05T00:42:58.177Z,25.10
2022-08-05T00:45:38.254Z,25.20
2022-08-05T00:48:09.414Z,25.30
2022-08-05T00:50:37.786Z,25.40
2022-08-05T00:53:09.794Z,25.50
2022-08-05T00:55:51.367Z,25.60
2022-08-05T00:58:19.155Z,25.60
2022-08-05T01:00:50.355Z,25.60
2022-08-05T01:03:22.514Z,25.60
2022-08-05T01:05:51.283Z,25.40
2022-08-05T01:08:39.950Z,25.40
2022-08-05T01:11:22.598Z,25.40
2022-08-05T01:13:59.846Z,25.40
2022-08-05T01:16:39.095Z,25.30
2022-08-05T01:19:17.969Z,25.40
2022-08-05T01:22:10.863Z,25.30
2022-08-05T01:24:50.699Z,25.20
2022-08-05T01:27:55.410Z,25.10
2022-08-05T01:30:34.121Z,25.00
2022-08-05T01:33:08.413Z,24.90
2022-08-05T01:35:51.557Z,24.90
2022-08-05T01:38:24.885Z,24.80
2022-08-05T01:40:57.240Z,24.70
2022-08-05T01:43:24.877Z,24.60
2022-08-05T01:45:56.559Z,24.50
2022-08-05T01:48:28.551Z,24.50
2022-08-05T01:50:56.652Z,24.50
2022-08-05T01:53:57.605Z,24.60
2022-08-05T01:58:13.082Z,24.50
2022-08-05T01:59:05.846Z,24.50
2022-08-05T02:01:39.868Z,24.50
2022-08-05T02:04:10.506Z,24.60
2022-08-05T02:06:39.379Z,24.60
2022-08-05T02:09:07.242Z,24.60
2022-08-05T02:12:01.445Z,24.70
2022-08-05T02:14:32.735Z,24.70
2022-08-05T02:17:06.618Z,24.70
2022-08-05T02:19:47.329Z,24.70
2022-08-05T02:22:38.893Z,24.60
2022-08-05T02:25:27.714Z,24.60
2022-08-05T02:28:03.176Z,24.40
2022-08-05T02:30:51.773Z,24.20
2022-08-05T02:33:24.394Z,24.20
2022-08-05T02:36:05.015Z,24.10
2022-08-05T02:38:35.261Z,24.00
2022-08-05T02:41:14.490Z,23.90
2022-08-05T02:44:02.801Z,23.80
2022-08-05T02:46:33.188Z,23.70
2022-08-05T02:49:01.834Z,23.70
2022-08-05T02:52:01.154Z,23.60
2022-08-05T02:54:36.264Z,23.50
2022-08-05T02:57:10.209Z,23.40
2022-08-05T02:59:55.484Z,23.40
2022-08-05T03:02:31.646Z,23.40
2022-08-05T03:04:58.914Z,23.40
2022-08-05T03:07:59.467Z,23.20
2022-08-05T03:10:24.520Z,23.20
2022-08-05T03:12:53.000Z,23.20
2022-08-05T03:15:21.457Z,23.30
2022-08-05T03:17:54.067Z,23.30
2022-08-05T03:20:22.340Z,23.20
2022-08-05T03:22:50.606Z,23.20
2022-08-05T03:25:33.241Z,23.20
2022-08-05T03:28:08.237Z,23.10
2022-08-05T03:30:36.623Z,23.10
2022-08-05T03:33:05.847Z,23.20
2022-08-05T03:35:40.466Z,23.10
2022-08-05T03:38:12.453Z,23.10
2022-08-05T03:40:48.542Z,23.00
2022-08-05T03:44:08.853Z,23.00
2022-08-05T03:46:04.332Z,23.00
2022-08-05T03:48:35.127Z,23.00
2022-08-05T03:52:48.707Z,22.90
2022-08-05T03:55:00.073Z,22.80
2022-08-05T03:57:29.037Z,22.80
2022-08-05T04:00:16.516Z,22.70
2022-08-05T04:02:58.173Z,22.70
2022-08-05T04:05:33.621Z,22.80
2022-08-05T04:08:30.261Z,22.80
2022-08-05T04:10:54.302Z,22.80
2022-08-05T04:13:21.734Z,22.80
2022-08-05T04:15:52.634Z,22.80
2022-08-05T04:18:30.171Z,22.80
2022-08-05T04:20:58.106Z,22.90
2022-08-05T04:24:05.851Z,22.80
2022-08-05T04:26:17.481Z,22.80
2022-08-05T04:28:51.221Z,22.80
2022-08-05T04:31:19.401Z,22.60
2022-08-05T04:34:17.119Z,22.60
2022-08-05T04:36:46.304Z,22.40
2022-08-05T04:39:17.082Z,22.30
2022-08-05T04:41:45.790Z,22.20
2022-08-05T04:44:14.918Z,22.30
2022-08-05T04:46:48.445Z,22.30
2022-08-05T04:49:15.447Z,22.40
2022-08-05T04:51:45.161Z,22.40
2022-08-05T04:54:12.376Z,22.40
2022-08-05T04:56:39.553Z,22.40
2022-08-05T04:59:21.806Z,22.30
2022-08-05T05:02:05.769Z,22.40
2022-08-05T05:04:35.081Z,22.40
2022-08-05T05:07:04.973Z,22.30
2022-08-05T05:09:37.245Z,22.30
2022-08-05T05:12:05.290Z,22.20
2022-08-05T05:14:33.082Z,22.10
2022-08-05T05:17:03.334Z,22.20
2022-08-05T05:19:37.257Z,22.30
2022-08-05T05:22:24.015Z,22.20
2022-08-05T05:24:57.410Z,22.20
2022-08-05T05:27:45.888Z,22.10
2022-08-05T05:30:30.674Z,22.10
2022-08-05T05:33:03.880Z,22.10
2022-08-05T05:35:47.564Z,22.20
2022-08-05T05:38:14.724Z,22.20
2022-08-05T05:40:51.446Z,22.20
2022-08-05T05:43:22.135Z,22.20
2022-08-05T05:46:13.752Z,22.30
2022-08-05T05:48:48.174Z,22.30
2022-08-05T05:51:25.814Z,22.40
2022-08-05T05:53:59.898Z,22.50
2022-08-05T05:56:32.708Z,22.50
2022-08-05T05:59:07.384Z,22.50
2022-08-05T06:01:39.428Z,22.40
2022-08-05T06:04:14.466Z,22.50
2022-08-05T06:06:43.308Z,22.60
2022-08-05T06:09:17.564Z,22.60
2022-08-05T06:12:01.191Z,22.70
2022-08-05T06:14:30.662Z,22.70
2022-08-05T06:16:58.341Z,22.70
2022-08-05T06:19:35.314Z,22.80
2022-08-05T06:22:06.634Z,22.80
2022-08-05T06:24:34.759Z,23.00
2022-08-05T06:27:02.020Z,23.10
2022-08-05T06:29:46.813Z,23.10
2022-08-05T06:32:26.412Z,23.10
2022-08-05T06:34:57.362Z,23.20
2022-08-05T06:37:57.083Z,23.20
2022-08-05T06:40:18.071Z,23.30
2022-08-05T06:42:51.701Z,23.40
2022-08-05T06:45:21.075Z,23.40
2022-08-05T06:48:36.927Z,23.50
2022-08-05T06:50:53.014Z,23.60
2022-08-05T06:53:22.559Z,23.70
2022-08-05T06:55:54.738Z,23.70
2022-08-05T06:58:35.346Z,23.80
2022-08-05T07:01:05.668Z,23.80
2022-08-05T07:03:33.351Z,23.80
2022-08-05T07:06:06.161Z,23.90
2022-08-05T07:08:47.733Z,23.90
2022-08-05T07:11:22.538Z,24.00
2022-08-05T07:14:15.405Z,24.00
2022-08-05T07:18:02.350Z,24.00
2022-08-05T07:20:23.108Z,24.10
2022-08-05T07:22:28.992Z,24.20
2022-08-05T07:25:23.118Z,24.30
2022-08-05T07:27:58.469Z,24.20
2022-08-05T07:30:34.277Z,24.20
2022-08-05T07:33:05.367Z,24.20
2022-08-05T07:36:04.265Z,24.20
2022-08-05T07:38:32.070Z,24.20
2022-08-05T07:41:16.657Z,24.20
2022-08-05T07:43:49.447Z,24.30
2022-08-05T07:46:18.892Z,24.40
2022-08-05T07:49:02.440Z,24.40
2022-08-05T07:51:48.957Z,24.40
2022-08-05T07:54:49.151Z,24.40
2022-08-05T07:58:02.371Z,24.40
2022-08-05T08:00:17.772Z,24.30
2022-08-05T08:03:14.882Z,24.40
2022-08-05T08:05:31.234Z,24.40
2022-08-05T08:08:06.117Z,24.50
2022-08-05T08:10:39.563Z,24.50
2022-08-05T08:13:07.735Z,24.60
2022-08-05T08:16:50.271Z,24.70
2022-08-05T08:18:25.270Z,24.80
2022-08-05T08:21:02.389Z,24.80
2022-08-05T08:24:03.591Z,24.90
2022-08-05T08:26:27.101Z,25.10
2022-08-05T08:29:02.147Z,25.20
2022-08-05T08:31:43.645Z,25.40
2022-08-05T08:34:10.297Z,25.60
2022-08-05T08:36:52.393Z,25.70
2022-08-05T08:39:23.323Z,25.80
2022-08-05T08:41:59.881Z,25.90
2022-08-05T08:45:19.016Z,25.90
2022-08-05T08:48:07.113Z,25.90
2022-08-05T08:50:31.178Z,25.90
2022-08-05T08:53:07.994Z,25.90
2022-08-05T08:56:04.713Z,26.00
2022-08-05T08:58:26.055Z,26.00
2022-08-05T09:01:05.960Z,26.00
2022-08-05T09:03:40.421Z,26.10
2022-08-05T09:06:10.969Z,26.20
2022-08-05T09:08:40.316Z,26.20
2022-08-05T09:11:08.422Z,26.10
2022-08-05T09:13:50.696Z,26.10
2022-08-05T09:16:27.052Z,26.10
2022-08-05T09:18:53.716Z,26.20
2022-08-05T09:22:22.719Z,26.20
2022-08-05T09:24:15.541Z,26.30
2022-08-05T09:26:46.086Z,26.30
2022-08-05T09:29:17.496Z,26.40
2022-08-05T09:32:41.660Z,26.50
2022-08-05T09:34:52.631Z,26.60
2022-08-05T09:38:16.594Z,26.70
2022-08-05T09:40:29.370Z,26.70
2022-08-05T09:42:56.025Z,26.90
2022-08-05T09:46:07.201Z,26.90
2022-08-05T09:48:30.886Z,27.00
2022-08-05T09:51:03.366Z,27.00
2022-08-05T09:53:55.003Z,27.10
2022-08-05T09:56:33.265Z,27.20
2022-08-05T09:59:07.006Z,27.30
2022-08-05T10:01:36.789Z,27.40
2022-08-05T10:04:16.052Z,27.40
2022-08-05T10:06:59.224Z,27.40
2022-08-05T10:09:29.623Z,27.50
2022-08-05T10:12:18.742Z,27.60
2022-08-05T10:15:16.982Z,27.60
2022-08-05T10:17:54.492Z,27.70
2022-08-05T10:20:23.856Z,27.80
2022-08-05T10:22:52.494Z,27.90
2022-08-05T10:25:19.609Z,28.00
2022-08-05T10:28:13.612Z,28.00
2022-08-05T10:32:46.671Z,28.10
2022-08-05T10:33:25.609Z,28.10
2022-08-05T10:35:59.670Z,28.30
2022-08-05T10:38:29.240Z,28.40
2022-08-05T10:41:08.265Z,28.60
2022-08-05T10:43:47.116Z,28.70
2022-08-05T10:46:18.248Z,28.70
2022-08-05T10:49:02.746Z,28.80
2022-08-05T10:51:57.738Z,28.90
2022-08-05T10:55:02.120Z,29.00
2022-08-05T10:57:29.693Z,29.10
2022-08-05T11:00:16.161Z,29.20
2022-08-05T11:03:23.668Z,29.20
2022-08-05T11:06:04.775Z,29.20
2022-08-05T11:08:37.374Z,29.30
2022-08-05T11:11:44.657Z,29.30
2022-08-05T11:14:57.835Z,29.50
2022-08-05T11:17:59.309Z,29.50
2022-08-05T11:20:43.691Z,29.60
2022-08-05T11:24:04.560Z,29.70
2022-08-05T11:26:29.267Z,29.80
2022-08-05T11:29:11.917Z,29.70
2022-08-05T11:31:58.871Z,29.70
2022-08-05T11:34:38.557Z,29.70
2022-08-05T11:37:06.278Z,29.70
2022-08-05T11:40:00.779Z,29.80
2022-08-05T11:42:37.894Z,30.00
2022-08-05T11:45:14.339Z,30.20
2022-08-05T11:47:54.526Z,30.30
2022-08-05T11:50:22.149Z,30.30
2022-08-05T11:52:50.356Z,30.30
2022-08-05T11:55:18.751Z,30.30
2022-08-05T11:58:10.480Z,30.20
2022-08-05T12:00:38.424Z,30.30
2022-08-05T12:03:29.328Z,30.30
2022-08-05T12:06:05.971Z,30.30
2022-08-05T12:08:35.099Z,30.30
2022-08-05T12:11:09.231Z,30.40
2022-08-05T12:13:58.704Z,30.40
2022-08-05T12:16:31.418Z,30.60
2022-08-05T12:18:58.094Z,30.70
2022-08-05T12:21:29.865Z,30.70
2022-08-05T12:24:04.771Z,30.70
2022-08-05T12:26:50.567Z,30.70
2022-08-05T12:29:22.853Z,30.80
2022-08-05T12:31:57.688Z,30.80
2022-08-05T12:34:31.030Z,30.90
2022-08-05T12:37:10.575Z,31.00
2022-08-05T12:39:48.758Z,31.00
2022-08-05T12:42:20.247Z,31.00
2022-08-05T12:44:47.906Z,31.10
2022-08-05T12:47:31.280Z,31.10
2022-08-05T12:50:03.507Z,31.10
2022-08-05T12:52:41.703Z,31.00
2022-08-05T12:55:22.676Z,31.00
2022-08-05T12:58:38.591Z,31.10
2022-08-05T13:02:03.963Z,31.10
2022-08-05T13:03:32.353Z,31.10
2022-08-05T13:06:01.016Z,31.20
2022-08-05T13:08:30.221Z,31.20
2022-08-05T13:11:04.266Z,31.20
2022-08-05T13:14:06.302Z,31.30
2022-08-05T13:16:20.129Z,31.30
2022-08-05T13:18:55.293Z,31.30
2022-08-05T13:21:28.310Z,31.30
2022-08-05T13:24:05.493Z,31.30
2022-08-05T13:26:32.231Z,31.30
2022-08-05T13:28:59.531Z,31.30
2022-08-05T13:32:03.348Z,31.30
2022-08-05T13:34:22.397Z,31.30
2022-08-05T13:36:52.935Z,31.20
2022-08-05T13:40:13.936Z,31.20
2022-08-05T13:42:07.747Z,31.20
2022-08-05T13:44:46.064Z,31.30
2022-08-05T13:47:34.748Z,31.30
2022-08-05T13:50:04.719Z,31.30
2022-08-05T13:52:35.618Z,31.30
2022-08-05T13:55:07.376Z,31.40
2022-08-05T13:57:48.711Z,31.40
2022-08-05T14:00:27.088Z,31.50
2022-08-05T14:02:58.212Z,31.50
2022-08-05T14:05:47.999Z,31.50
2022-08-05T14:08:20.727Z,31.50
2022-08-05T14:10:48.336Z,31.60
2022-08-05T14:13:15.513Z,31.60
2022-08-05T14:16:07.450Z,31.60
2022-08-05T14:18:29.235Z,31.70
2022-08-05T14:20:56.020Z,31.70
2022-08-05T14:23:25.047Z,31.70
2022-08-05T14:25:57.903Z,31.80
2022-08-05T14:28:26.790Z,31.80
2022-08-05T14:30:54.655Z,31.90
2022-08-05T14:33:22.879Z,31.90
2022-08-05T14:35:51.415Z,32.00
2022-08-05T14:38:31.662Z,32.00
2022-08-05T14:41:06.248Z,32.00
2022-08-05T14:43:59.342Z,32.00
2022-08-05T14:46:28.752Z,32.00
2022-08-05T14:48:59.470Z,32.00
2022-08-05T14:51:31.001Z,32.00
2022-08-05T14:54:25.899Z,31.90
2022-08-05T14:56:46.901Z,31.80
2022-08-05T14:59:14.159Z,31.70
2022-08-05T15:01:48.251Z,31.70
2022-08-05T15:04:17.345Z,31.90
2022-08-05T15:06:49.121Z,31.90
2022-08-05T15:09:51.116Z,32.00
2022-08-05T15:12:09.069Z,32.10
2022-08-05T15:14:44.211Z,32.20
2022-08-05T15:17:47.025Z,32.20
2022-08-05T15:20:04.642Z,32.30
2022-08-05T15:22:31.549Z,32.30
2022-08-05T15:24:59.134Z,32.30
2022-08-05T15:27:26.070Z,32.30
2022-08-05T15:29:58.968Z,32.30
2022-08-05T15:32:29.003Z,32.30
2022-08-05T15:34:56.891Z,32.30
2022-08-05T15:38:08.526Z,32.40
2022-08-05T15:41:00.358Z,32.40
2022-08-05T15:43:09.394Z,32.40
2022-08-05T15:45:44.116Z,32.40
2022-08-05T15:48:14.311Z,32.40
2022-08-05T15:50:46.156Z,32.50
2022-08-05T15:53:13.986Z,32.50
2022-08-05T15:56:03.778Z,32.50
2022-08-05T15:58:35.703Z,32.50
2022-08-05T16:01:17.441Z,32.40
2022-08-05T16:03:48.626Z,32.50
2022-08-05T16:06:20.329Z,32.40
2022-08-05T16:08:48.055Z,32.30
2022-08-05T16:11:18.284Z,32.40
2022-08-05T16:13:48.358Z,32.30
2022-08-05T16:16:15.854Z,32.20
2022-08-05T16:18:52.886Z,32.10
2022-08-05T16:21:20.772Z,31.90
2022-08-05T16:24:12.614Z,31.70
2022-08-05T16:26:56.779Z,31.60
2022-08-05T16:29:24.894Z,31.60
2022-08-05T16:31:56.294Z,31.50
2022-08-05T16:34:25.709Z,31.50
2022-08-05T16:36:54.937Z,31.50
2022-08-05T16:39:22.163Z,31.40
2022-08-05T16:42:13.900Z,31.40
2022-08-05T16:44:45.057Z,31.30
2022-08-05T16:47:28.900Z,31.30
2022-08-05T16:50:04.527Z,31.10
2022-08-05T16:52:33.476Z,31.10
2022-08-05T16:55:00.694Z,31.00
2022-08-05T16:57:52.539Z,30.90
2022-08-05T17:00:14.656Z,30.70
2022-08-05T17:03:02.882Z,30.30
2022-08-05T17:05:30.443Z,30.20
2022-08-05T17:07:57.899Z,30.00
2022-08-05T17:10:26.374Z,29.90
2022-08-05T17:12:57.416Z,29.80
2022-08-05T17:15:29.496Z,29.20
2022-08-05T17:18:14.115Z,28.60
2022-08-05T17:20:42.032Z,28.10
2022-08-05T17:23:11.030Z,27.70
2022-08-05T17:25:57.742Z,27.40
2022-08-05T17:28:24.412Z,26.70
2022-08-05T17:30:52.346Z,26.10
2022-08-05T17:33:19.950Z,26.00
2022-08-05T17:36:09.014Z,25.80
2022-08-05T17:38:33.565Z,25.70
2022-08-05T17:41:01.654Z,25.40
2022-08-05T17:43:46.747Z,25.00
2022-08-05T17:46:14.012Z,24.80
2022-08-05T17:48:43.193Z,24.60
2022-08-05T17:51:11.488Z,24.30
2022-08-05T17:53:39.350Z,24.10
2022-08-05T17:56:06.770Z,24.10
2022-08-05T17:58:37.538Z,24.00
2022-08-05T18:01:04.240Z,24.00
2022-08-05T18:04:05.944Z,24.10
2022-08-05T18:06:29.491Z,24.00
2022-08-05T18:08:58.249Z,24.00
2022-08-05T18:11:33.273Z,24.00
2022-08-05T18:14:07.205Z,23.90
2022-08-05T18:16:51.191Z,23.90
2022-08-05T18:19:18.826Z,23.90
2022-08-05T18:22:09.568Z,23.80
2022-08-05T18:24:36.565Z,23.80
2022-08-05T18:27:03.271Z,23.60
2022-08-05T18:29:39.958Z,23.50
2022-08-05T18:32:13.083Z,23.50
2022-08-05T18:34:40.702Z,23.60
2022-08-05T18:37:12.552Z,23.70
2022-08-05T18:40:29.743Z,23.70
2022-08-05T18:42:26.865Z,23.70
2022-08-05T18:44:56.487Z,23.70
2022-08-05T18:47:26.791Z,23.70
2022-08-05T18:50:12.400Z,23.60
2022-08-05T18:52:41.690Z,23.70
2022-08-05T18:55:18.498Z,23.70
2022-08-05T18:57:52.800Z,23.80
2022-08-05T19:00:29.068Z,23.70
2022-08-05T19:02:56.787Z,23.60
2022-08-05T19:06:11.483Z,23.50
2022-08-05T19:08:13.616Z,23.60
2022-08-05T19:10:42.030Z,23.50
2022-08-05T19:13:12.298Z,23.50
2022-08-05T19:15:59.533Z,23.50
2022-08-05T19:18:29.719Z,23.50
2022-08-05T19:20:56.431Z,23.70
2022-08-05T19:24:06.757Z,23.70
2022-08-05T19:26:11.784Z,23.50
2022-08-05T19:28:43.401Z,23.50
2022-08-05T19:31:13.645Z,23.40
2022-08-05T19:33:48.426Z,23.30
2022-08-05T19:36:27.057Z,23.40
2022-08-05T19:38:58.946Z,23.40
2022-08-05T19:41:58.434Z,23.50
2022-08-05T19:44:14.577Z,23.50
2022-08-05T19:46:41.538Z,23.50
2022-08-05T19:49:12.488Z,23.50
2022-08-05T19:52:04.363Z,23.60
2022-08-05T19:54:31.990Z,23.70
2022-08-05T19:57:09.225Z,23.70
2022-08-05T19:59:54.691Z,23.60
2022-08-05T20:02:27.424Z,23.60
2022-08-05T20:04:58.544Z,23.50
2022-08-05T20:07:46.369Z,23.60
2022-08-05T20:10:14.151Z,23.60
2022-08-05T20:12:46.164Z,23.50
2022-08-05T20:15:48.678Z,23.50
2022-08-05T20:18:04.290Z,23.50
2022-08-05T20:20:38.633Z,23.40
2022-08-05T20:23:05.610Z,23.10
2022-08-05T20:25:40.119Z,22.80
2022-08-05T20:28:13.841Z,22.70
2022-08-05T20:30:41.361Z,22.50
2022-08-05T20:33:08.633Z,22.50
2022-08-05T20:35:40.544Z,22.60
2022-08-05T20:38:14.441Z,22.70
2022-08-05T20:40:54.021Z,22.70
2022-08-05T20:43:57.678Z,22.70
2022-08-05T20:46:10.112Z,22.70
2022-08-05T20:48:39.371Z,22.70
2022-08-05T20:51:09.002Z,22.70
2022-08-05T20:53:36.532Z,22.70
2022-08-05T20:56:08.508Z,22.70
2022-08-05T20:58:35.934Z,22.70
2022-08-05T21:01:04.122Z,22.70
2022-08-05T21:03:34.620Z,22.70
2022-08-05T21:06:02.073Z,22.80
2022-08-05T21:08:42.429Z,22.80
2022-08-05T21:11:12.551Z,22.80
2022-08-05T21:13:48.119Z,22.80
2022-08-05T21:16:30.040Z,22.80
2022-08-05T21:19:02.048Z,22.80
2022-08-05T21:21:39.034Z,22.80
2022-08-05T21:24:07.195Z,22.80
2022-08-05T21:26:33.964Z,22.70
2022-08-05T21:29:12.636Z,22.70
2022-08-05T21:31:45.312Z,22.60
2022-08-05T21:34:12.087Z,22.70
2022-08-05T21:36:39.427Z,22.70
2022-08-05T21:39:10.015Z,22.70
2022-08-05T21:41:41.561Z,22.50
2022-08-05T21:44:19.020Z,22.50
2022-08-05T21:46:53.734Z,22.50
2022-08-05T21:49:58.459Z,22.50
2022-08-05T21:52:22.082Z,22.50
2022-08-05T21:54:55.415Z,22.50
2022-08-05T21:57:42.750Z,22.50
2022-08-05T22:00:11.538Z,22.40
2022-08-05T22:02:38.840Z,22.40
2022-08-05T22:05:06.032Z,22.50
2022-08-05T22:07:39.734Z,22.40
2022-08-05T22:10:26.811Z,22.50
2022-08-05T22:12:57.484Z,22.40
2022-08-05T22:16:01.294Z,22.40
2022-08-05T22:18:14.466Z,22.50
2022-08-05T22:20:41.855Z,22.50
2022-08-05T22:24:02.791Z,22.40
2022-08-05T22:26:34.547Z,22.30
2022-08-05T22:29:02.355Z,22.30
2022-08-05T22:31:30.139Z,22.30
2022-08-05T22:34:01.607Z,22.30
2022-08-05T22:36:34.832Z,22.20
2022-08-05T22:39:09.364Z,22.30
2022-08-05T22:42:11.549Z,22.10
2022-08-05T22:44:29.320Z,22.00
2022-08-05T22:46:56.048Z,21.90
2022-08-05T22:50:17.561Z,21.80
2022-08-05T22:52:15.405Z,21.70
2022-08-05T22:54:55.943Z,21.60
2022-08-05T22:57:22.690Z,21.50
2022-08-05T22:59:53.550Z,21.50
2022-08-05T23:02:29.564Z,21.50
2022-08-05T23:05:04.628Z,21.60
2022-08-05T23:07:32.362Z,21.70
2022-08-05T23:10:01.413Z,21.70
2022-08-05T23:12:32.921Z,21.70
2022-08-05T23:15:03.997Z,21.80
2022-08-05T23:17:59.720Z,21.60
2022-08-05T23:20:24.380Z,21.60
2022-08-05T23:22:56.118Z,21.60
2022-08-05T23:25:51.003Z,21.60
2022-08-05T23:28:10.744Z,21.50
2022-08-05T23:30:40.139Z,21.50
2022-08-05T23:33:16.067Z,21.50
2022-08-05T23:35:50.142Z,21.50
2022-08-05T23:38:16.977Z,21.50
2022-08-05T23:40:50.048Z,21.50
2022-08-05T23:43:25.844Z,21.50
2022-08-05T23:46:20.395Z,21.50
2022-08-05T23:48:59.773Z,21.40
2022-08-05T23:51:53.552Z,21.40
2022-08-05T23:54:25.969Z,21.40
2022-08-05T23:56:54.559Z,21.40
2022-08-05T23:59:21.924Z,21.40
